Time;durP1;ratioP1;P1;durP2;ratioP2;P2;SDS_P1;SDS_P2;PMS_P1;PMS_P2;Temp;Humidity;BMP_temperature;BMP_pressure;BME280_temperature;BME280_humidity;BME280_pressure;Samples;Min_cycle;Max_cycle;Signal;HPM_P1;HPM_P2
2022/11/19 00:01:44;;;;;;;3.73;1.60;;;;;;;;;;5120313;27;20464;-92
2022/11/19 00:04:10;;;;;;;2.10;1.77;;;;;;;;;;5119043;27;20402;-92
2022/11/19 00:06:36;;;;;;;2.05;1.60;;;;;;;;;;5113584;27;20380;-92
2022/11/19 00:09:04;;;;;;;2.33;1.58;;;;;;;;;;5121226;27;20396;-93
2022/11/19 00:14:15;;;;;;;3.70;1.60;;;;;;;;;;5112694;27;20920;-92
2022/11/19 00:16:42;;;;;;;9.40;7.90;;;;;;;;;;5119045;27;20383;-91
2022/11/19 00:19:09;;;;;;;11.00;9.85;;;;;;;;;;5118002;27;20372;-92
2022/11/19 00:21:35;;;;;;;7.47;6.63;;;;;;;;;;5121095;27;20367;-92
2022/11/19 00:24:01;;;;;;;2.50;2.30;;;;;;;;;;5116707;27;20384;-92
2022/11/19 00:26:27;;;;;;;3.30;2.17;;;;;;;;;;5115611;27;20380;-90
2022/11/19 00:28:54;;;;;;;2.47;1.45;;;;;;;;;;5116533;27;20452;-93
2022/11/19 00:31:20;;;;;;;2.67;1.83;;;;;;;;;;5096772;28;20388;-90
2022/11/19 00:33:49;;;;;;;3.08;1.70;;;;;;;;;;5116020;27;20368;-92
2022/11/19 00:36:15;;;;;;;2.30;1.58;;;;;;;;;;5118998;27;20421;-90
2022/11/19 00:38:42;;;;;;;3.05;1.80;;;;;;;;;;5121963;27;20380;-92
2022/11/19 00:41:08;;;;;;;2.00;1.50;;;;;;;;;;5120279;27;20420;-92
2022/11/19 00:43:46;;;;;;;2.07;1.63;;;;;;;;;;5113905;27;20881;-91
2022/11/19 00:46:13;;;;;;;2.45;1.40;;;;;;;;;;5113870;27;20408;-91
2022/11/19 00:48:39;;;;;;;2.42;1.52;;;;;;;;;;5120042;27;20407;-91
2022/11/19 00:51:06;;;;;;;3.00;2.22;;;;;;;;;;5107246;27;20370;-90
2022/11/19 00:53:32;;;;;;;3.10;2.80;;;;;;;;;;5116875;27;20370;-91
2022/11/19 00:56:03;;;;;;;2.88;2.38;;;;;;;;;;5115750;27;20403;-92
2022/11/19 00:58:29;;;;;;;3.28;2.40;;;;;;;;;;5114406;27;20439;-94
2022/11/19 01:00:55;;;;;;;3.80;2.10;;;;;;;;;;5110833;27;20457;-92
2022/11/19 01:03:21;;;;;;;2.58;2.33;;;;;;;;;;5117690;27;20394;-92
2022/11/19 01:05:47;;;;;;;2.95;1.95;;;;;;;;;;5115134;27;20379;-92
2022/11/19 01:08:13;;;;;;;2.42;2.22;;;;;;;;;;5114111;27;20381;-92
2022/11/19 01:10:39;;;;;;;2.60;1.58;;;;;;;;;;5122568;27;20381;-91
2022/11/19 01:15:50;;;;;;;2.83;2.15;;;;;;;;;;5111583;27;20776;-91
2022/11/19 01:18:17;;;;;;;3.55;1.80;;;;;;;;;;5100750;28;20383;-93
2022/11/19 01:20:43;;;;;;;2.37;1.87;;;;;;;;;;5113274;27;20380;-91
2022/11/19 01:23:10;;;;;;;2.80;2.00;;;;;;;;;;5115428;27;20463;-91
2022/11/19 01:25:36;;;;;;;3.00;2.33;;;;;;;;;;5118125;27;20430;-92
2022/11/19 01:28:02;;;;;;;3.55;2.33;;;;;;;;;;5096417;28;20419;-91
2022/11/19 01:30:28;;;;;;;3.13;2.42;;;;;;;;;;5110967;27;20899;-91
2022/11/19 01:32:54;;;;;;;2.97;2.67;;;;;;;;;;5113719;27;20376;-92
2022/11/19 01:35:20;;;;;;;2.80;2.60;;;;;;;;;;5117347;27;20492;-91
2022/11/19 01:37:46;;;;;;;3.85;3.47;;;;;;;;;;5117571;27;21131;-91
2022/11/19 01:40:13;;;;;;;3.58;2.97;;;;;;;;;;5124603;27;20741;-91
2022/11/19 01:42:48;;;;;;;4.20;2.60;;;;;;;;;;5116784;27;20379;-92
2022/11/19 01:45:20;;;;;;;3.28;2.83;;;;;;;;;;5116351;27;20412;-90
2022/11/19 01:47:47;;;;;;;2.80;2.60;;;;;;;;;;5115105;27;20487;-92
2022/11/19 01:50:13;;;;;;;3.10;2.80;;;;;;;;;;5115985;27;20479;-91
2022/11/19 01:52:39;;;;;;;3.03;2.45;;;;;;;;;;5119818;27;20369;-91
2022/11/19 01:55:05;;;;;;;2.42;2.20;;;;;;;;;;5127885;27;20420;-91
2022/11/19 01:57:31;;;;;;;3.08;2.47;;;;;;;;;;5126869;27;20464;-92
2022/11/19 01:59:57;;;;;;;3.13;2.60;;;;;;;;;;5126623;27;20413;-93
2022/11/19 02:02:24;;;;;;;4.15;2.97;;;;;;;;;;5131391;27;20402;-91
2022/11/19 02:04:50;;;;;;;2.90;2.60;;;;;;;;;;5119785;27;20426;-91
2022/11/19 02:07:17;;;;;;;3.00;2.53;;;;;;;;;;5133719;27;20379;-91
2022/11/19 02:09:43;;;;;;;2.78;2.30;;;;;;;;;;5134943;27;20434;-92
2022/11/19 02:12:28;;;;;;;2.85;2.53;;;;;;;;;;5121575;27;20395;-92
2022/11/19 02:15:02;;;;;;;5.00;2.40;;;;;;;;;;5114742;27;20470;-93
2022/11/19 02:17:28;;;;;;;2.70;2.50;;;;;;;;;;5120087;27;20426;-90
2022/11/19 02:20:17;;;;;;;2.40;2.00;;;;;;;;;;5130615;27;20374;-91
2022/11/19 02:23:01;;;;;;;2.47;2.03;;;;;;;;;;5146067;27;20374;-92
2022/11/19 02:25:27;;;;;;;2.80;2.60;;;;;;;;;;5149093;27;20383;-91
2022/11/19 02:28:09;;;;;;;4.80;2.22;;;;;;;;;;5150212;27;20386;-91
2022/11/19 02:30:36;;;;;;;2.65;2.40;;;;;;;;;;5145475;27;20418;-92
2022/11/19 02:33:07;;;;;;;3.20;2.27;;;;;;;;;;5142563;27;20390;-92
2022/11/19 02:35:36;;;;;;;2.65;2.40;;;;;;;;;;5153092;27;20452;-92
2022/11/19 02:38:12;;;;;;;2.88;2.10;;;;;;;;;;5140653;27;20465;-92
2022/11/19 02:40:43;;;;;;;4.05;2.83;;;;;;;;;;5130570;27;20384;-93
2022/11/19 02:43:15;;;;;;;2.85;2.53;;;;;;;;;;5134774;27;20460;-93
2022/11/19 02:45:48;;;;;;;2.53;2.30;;;;;;;;;;5135444;27;20804;-91
2022/11/19 02:48:17;;;;;;;3.10;2.42;;;;;;;;;;5131682;27;20378;-94
2022/11/19 02:50:45;;;;;;;2.63;2.17;;;;;;;;;;5135235;27;20422;-91
2022/11/19 02:53:11;;;;;;;2.77;2.47;;;;;;;;;;5116970;27;20875;-93
2022/11/19 02:55:38;;;;;;;2.47;2.28;;;;;;;;;;5135221;27;20509;-92
2022/11/19 03:04:28;;;;;;;2.35;2.15;;;;;;;;;;5136511;27;20773;-92
2022/11/19 03:06:33;;;;;;;2.20;2.00;;;;;;;;;;5137060;27;20417;-91
2022/11/19 03:09:00;;;;;;;3.25;2.08;;;;;;;;;;5116978;27;20907;-91
2022/11/19 03:11:27;;;;;;;2.67;2.20;;;;;;;;;;5133963;27;20403;-92
2022/11/19 03:16:57;;;;;;;2.28;2.05;;;;;;;;;;5134994;27;20383;-91
2022/11/19 03:19:37;;;;;;;2.95;2.20;;;;;;;;;;5134845;27;20606;-92
2022/11/19 03:22:15;;;;;;;2.75;2.13;;;;;;;;;;5131727;27;20817;-92
2022/11/19 03:24:43;;;;;;;2.38;2.08;;;;;;;;;;5125834;27;20565;-92
2022/11/19 03:27:11;;;;;;;2.60;1.90;;;;;;;;;;5125440;27;20394;-91
2022/11/19 03:29:39;;;;;;;2.30;2.10;;;;;;;;;;5132844;27;20451;-91
2022/11/19 03:32:08;;;;;;;2.90;2.10;;;;;;;;;;5134158;27;20371;-91
2022/11/19 03:34:35;;;;;;;3.90;2.05;;;;;;;;;;5134116;27;20414;-91
2022/11/19 03:37:02;;;;;;;4.00;2.05;;;;;;;;;;5134543;27;20682;-93
2022/11/19 03:39:29;;;;;;;2.72;2.17;;;;;;;;;;5133705;27;20370;-92
2022/11/19 03:41:56;;;;;;;2.83;2.05;;;;;;;;;;5125123;27;20855;-92
2022/11/19 03:44:25;;;;;;;1.83;1.73;;;;;;;;;;5134447;27;20775;-91
2022/11/19 03:46:54;;;;;;;2.20;1.40;;;;;;;;;;5134230;27;20366;-93
2022/11/19 03:49:24;;;;;;;2.40;1.73;;;;;;;;;;5134346;27;20740;-92
2022/11/19 03:51:53;;;;;;;1.90;1.60;;;;;;;;;;5144464;27;20372;-91
2022/11/19 03:54:20;;;;;;;2.30;1.58;;;;;;;;;;5113460;28;20430;-90
2022/11/19 03:56:46;;;;;;;2.03;1.50;;;;;;;;;;5116946;27;20378;-91
2022/11/19 03:59:12;;;;;;;1.85;1.60;;;;;;;;;;5142789;27;20767;-91
2022/11/19 04:01:39;;;;;;;2.25;1.60;;;;;;;;;;5113116;28;20422;-91
2022/11/19 04:06:50;;;;;;;2.55;2.05;;;;;;;;;;5145896;27;20776;-91
2022/11/19 04:09:16;;;;;;;3.15;2.20;;;;;;;;;;5140215;27;20393;-91
2022/11/19 04:11:42;;;;;;;3.42;2.33;;;;;;;;;;5134662;27;20369;-92
2022/11/19 04:14:08;;;;;;;3.45;1.85;;;;;;;;;;5117982;27;20374;-91
2022/11/19 04:16:35;;;;;;;2.50;2.10;;;;;;;;;;5134363;27;20367;-91
2022/11/19 04:19:01;;;;;;;2.67;1.95;;;;;;;;;;5133675;27;20374;-92
2022/11/19 04:21:27;;;;;;;3.45;2.30;;;;;;;;;;5133332;27;20386;-91
2022/11/19 04:23:53;;;;;;;2.15;1.90;;;;;;;;;;5146137;27;20454;-91
2022/11/19 04:26:19;;;;;;;3.00;2.00;;;;;;;;;;5135471;27;20378;-91
2022/11/19 04:28:45;;;;;;;1.95;1.75;;;;;;;;;;5133386;27;20849;-93
2022/11/19 04:31:11;;;;;;;2.38;1.80;;;;;;;;;;5133073;27;20381;-92
2022/11/19 04:33:37;;;;;;;3.17;2.13;;;;;;;;;;5133286;27;20370;-92
2022/11/19 04:36:03;;;;;;;3.22;2.17;;;;;;;;;;5127128;27;20419;-92
2022/11/19 04:38:29;;;;;;;3.20;2.10;;;;;;;;;;5120106;27;20747;-93
2022/11/19 04:40:55;;;;;;;2.95;2.65;;;;;;;;;;5125991;27;20744;-92
2022/11/19 04:43:21;;;;;;;2.87;2.30;;;;;;;;;;5130127;27;20466;-90
2022/11/19 04:45:47;;;;;;;2.97;2.78;;;;;;;;;;5133150;27;20371;-92
2022/11/19 04:48:13;;;;;;;2.55;2.35;;;;;;;;;;5132911;27;20732;-91
2022/11/19 04:50:39;;;;;;;2.70;2.10;;;;;;;;;;5132025;27;20375;-91
2022/11/19 04:53:05;;;;;;;3.20;2.50;;;;;;;;;;5132948;27;20398;-92
2022/11/19 04:55:31;;;;;;;2.53;2.30;;;;;;;;;;5134814;27;20379;-91
2022/11/19 04:57:57;;;;;;;3.15;1.70;;;;;;;;;;5136887;27;20389;-91
2022/11/19 05:00:23;;;;;;;4.93;2.60;;;;;;;;;;5137336;27;20826;-91
2022/11/19 05:02:49;;;;;;;3.28;2.10;;;;;;;;;;5121601;27;20402;-91
2022/11/19 05:05:15;;;;;;;3.17;1.80;;;;;;;;;;5128468;27;20382;-91
2022/11/19 05:07:41;;;;;;;3.58;1.88;;;;;;;;;;5140984;27;20376;-91
2022/11/19 05:10:07;;;;;;;2.83;2.60;;;;;;;;;;5114724;28;20392;-92
2022/11/19 05:12:33;;;;;;;2.30;2.00;;;;;;;;;;5131963;27;20461;-93
2022/11/19 05:14:59;;;;;;;3.38;2.08;;;;;;;;;;5136211;27;20523;-92
2022/11/19 05:17:25;;;;;;;2.70;2.03;;;;;;;;;;5137531;27;20370;-91
2022/11/19 05:19:51;;;;;;;2.53;2.15;;;;;;;;;;5136970;27;20378;-92
2022/11/19 05:22:17;;;;;;;3.13;2.50;;;;;;;;;;5136930;27;20755;-93
2022/11/19 05:24:43;;;;;;;2.55;1.95;;;;;;;;;;5136954;27;20379;-93
2022/11/19 05:27:09;;;;;;;3.20;2.25;;;;;;;;;;5136952;27;20378;-91
2022/11/19 05:29:35;;;;;;;3.35;2.67;;;;;;;;;;5136290;27;20398;-90
2022/11/19 05:32:01;;;;;;;2.55;2.35;;;;;;;;;;5143751;27;20400;-91
2022/11/19 05:34:27;;;;;;;3.00;2.73;;;;;;;;;;5136862;27;20367;-93
2022/11/19 05:36:53;;;;;;;2.90;2.42;;;;;;;;;;5143967;27;20369;-92
2022/11/19 05:39:19;;;;;;;3.28;2.90;;;;;;;;;;5130733;27;20760;-92
2022/11/19 05:41:45;;;;;;;3.20;2.55;;;;;;;;;;5126014;27;20396;-92
2022/11/19 05:44:11;;;;;;;3.40;2.70;;;;;;;;;;5146146;27;20374;-92
2022/11/19 05:46:37;;;;;;;3.78;2.67;;;;;;;;;;5136597;27;20767;-93
2022/11/19 05:49:03;;;;;;;2.72;2.25;;;;;;;;;;5155172;27;20397;-92
2022/11/19 05:51:29;;;;;;;3.40;2.20;;;;;;;;;;5139882;27;20382;-92
2022/11/19 05:53:55;;;;;;;2.63;2.30;;;;;;;;;;5130916;28;20431;-91
2022/11/19 05:56:21;;;;;;;2.50;2.30;;;;;;;;;;5143742;27;20458;-91
2022/11/19 05:58:47;;;;;;;2.20;1.90;;;;;;;;;;5147988;27;20443;-91
2022/11/19 06:01:14;;;;;;;2.80;2.13;;;;;;;;;;5143512;27;20856;-91
2022/11/19 06:03:40;;;;;;;3.53;2.00;;;;;;;;;;5140686;27;20378;-92
2022/11/19 06:06:06;;;;;;;3.30;1.90;;;;;;;;;;5141065;27;20444;-91
2022/11/19 06:08:32;;;;;;;2.97;2.03;;;;;;;;;;5139271;27;20473;-91
2022/11/19 06:11:02;;;;;;;2.10;1.90;;;;;;;;;;5143136;27;20873;-91
2022/11/19 06:13:28;;;;;;;1.98;1.80;;;;;;;;;;5137832;27;20368;-89
2022/11/19 06:15:53;;;;;;;2.33;2.13;;;;;;;;;;5115574;28;20482;-89
2022/11/19 06:18:19;;;;;;;2.35;2.13;;;;;;;;;;5115419;28;20379;-90
2022/11/19 06:20:45;;;;;;;2.45;2.05;;;;;;;;;;5115478;28;20376;-91
2022/11/19 06:23:11;;;;;;;2.65;2.45;;;;;;;;;;5115560;28;20373;-92
2022/11/19 06:25:37;;;;;;;2.80;2.58;;;;;;;;;;5115958;28;20398;-91
2022/11/19 06:28:04;;;;;;;3.40;3.10;;;;;;;;;;5134023;27;20367;-89
2022/11/19 06:30:29;;;;;;;3.50;2.70;;;;;;;;;;5137697;27;20395;-91
2022/11/19 06:32:55;;;;;;;3.13;2.83;;;;;;;;;;5117703;27;20442;-92
2022/11/19 06:35:21;;;;;;;4.20;3.80;;;;;;;;;;5109142;28;20425;-92
2022/11/19 06:37:47;;;;;;;4.43;4.00;;;;;;;;;;5117603;27;20377;-92
2022/11/19 06:40:14;;;;;;;4.40;4.00;;;;;;;;;;5121434;27;20372;-90
2022/11/19 06:42:40;;;;;;;4.50;4.10;;;;;;;;;;5120034;27;20394;-91
2022/11/19 06:45:08;;;;;;;4.38;3.97;;;;;;;;;;5134790;27;20377;-93
2022/11/19 06:47:35;;;;;;;3.72;3.40;;;;;;;;;;5121898;27;20420;-90
2022/11/19 06:50:01;;;;;;;4.70;4.05;;;;;;;;;;5132605;27;20398;-92
2022/11/19 06:52:27;;;;;;;4.20;3.90;;;;;;;;;;5135895;27;20374;-92
2022/11/19 06:54:53;;;;;;;4.30;3.90;;;;;;;;;;5135484;27;20378;-92
2022/11/19 06:57:19;;;;;;;4.13;3.73;;;;;;;;;;5135563;27;20374;-92
2022/11/19 06:59:46;;;;;;;4.22;3.90;;;;;;;;;;5129476;27;20398;-92
2022/11/19 07:02:12;;;;;;;3.90;3.60;;;;;;;;;;5130670;27;20429;-91
2022/11/19 07:04:38;;;;;;;4.70;4.10;;;;;;;;;;5144176;27;20378;-92
2022/11/19 07:08:11;;;;;;;4.53;4.18;;;;;;;;;;5136741;27;20462;-92
2022/11/19 07:44:07;;;;;;;5.10;4.70;;;;;;;;;;5072846;28;20992;-90
2022/11/19 07:46:34;;;;;;;5.20;4.80;;;;;;;;;;5072769;28;20372;-89
2022/11/19 07:48:59;;;;;;;6.68;4.60;;;;;;;;;;5054709;28;20403;-88
2022/11/19 07:51:26;;;;;;;4.85;4.40;;;;;;;;;;5071893;28;20871;-89
2022/11/19 07:53:53;;;;;;;4.63;4.22;;;;;;;;;;5074310;28;20439;-90
2022/11/19 07:56:20;;;;;;;5.18;3.90;;;;;;;;;;5056475;28;20384;-89
2022/11/19 07:58:46;;;;;;;5.03;3.80;;;;;;;;;;5072391;28;20380;-88
2022/11/19 08:01:13;;;;;;;4.10;3.70;;;;;;;;;;5072390;28;20372;-90
2022/11/19 08:03:45;;;;;;;6.65;4.50;;;;;;;;;;5072234;28;20379;-89
2022/11/19 08:06:11;;;;;;;4.45;4.05;;;;;;;;;;5075627;28;20369;-86
2022/11/19 08:08:37;;;;;;;5.90;5.30;;;;;;;;;;5072237;28;20400;-91
2022/11/19 08:11:04;;;;;;;4.68;4.28;;;;;;;;;;5060555;28;20825;-91
2022/11/19 08:13:31;;;;;;;5.30;4.80;;;;;;;;;;5072345;28;20933;-89
2022/11/19 08:16:00;;;;;;;6.10;5.50;;;;;;;;;;5070512;28;20389;-87
2022/11/19 08:18:26;;;;;;;5.35;4.82;;;;;;;;;;5061852;28;20406;-88
2022/11/19 08:20:52;;;;;;;4.93;4.53;;;;;;;;;;5072410;28;20773;-90
2022/11/19 08:23:18;;;;;;;5.07;4.57;;;;;;;;;;5072136;28;20440;-88
2022/11/19 08:25:44;;;;;;;4.65;4.03;;;;;;;;;;5072049;28;20384;-89
2022/11/19 08:28:11;;;;;;;5.47;4.32;;;;;;;;;;5071965;28;20387;-90
2022/11/19 08:30:39;;;;;;;5.10;4.40;;;;;;;;;;5071774;28;20399;-89
2022/11/19 08:33:05;;;;;;;6.17;4.97;;;;;;;;;;5074381;28;20376;-92
2022/11/19 08:35:31;;;;;;;7.03;6.07;;;;;;;;;;5091709;28;20455;-92
2022/11/19 08:37:57;;;;;;;7.63;5.10;;;;;;;;;;5082949;28;20391;-92
2022/11/19 08:40:24;;;;;;;7.97;5.50;;;;;;;;;;5064691;28;20445;-91
2022/11/19 08:42:59;;;;;;;6.00;5.35;;;;;;;;;;5086498;28;20457;-92
2022/11/19 08:45:26;;;;;;;5.65;5.05;;;;;;;;;;5060630;28;20448;-92
2022/11/19 08:47:53;;;;;;;5.55;4.28;;;;;;;;;;5059707;28;20443;-92
2022/11/19 08:50:19;;;;;;;4.73;4.27;;;;;;;;;;5067612;28;20443;-92
2022/11/19 08:52:45;;;;;;;4.85;4.30;;;;;;;;;;5065682;28;20379;-92
2022/11/19 08:55:11;;;;;;;25.40;6.63;;;;;;;;;;5071218;28;20441;-92
2022/11/19 08:57:37;;;;;;;7.43;4.80;;;;;;;;;;5080436;28;20377;-90
2022/11/19 09:00:04;;;;;;;6.00;5.30;;;;;;;;;;5083201;28;20556;-93
2022/11/19 09:02:29;;;;;;;6.35;5.60;;;;;;;;;;5076246;28;20429;-92
2022/11/19 09:04:55;;;;;;;6.07;4.97;;;;;;;;;;5084263;28;20458;-91
2022/11/19 09:07:21;;;;;;;6.75;4.75;;;;;;;;;;5088120;28;20388;-92
2022/11/19 09:09:47;;;;;;;5.47;4.40;;;;;;;;;;5073326;28;20422;-92
2022/11/19 09:12:13;;;;;;;19.95;6.05;;;;;;;;;;5055817;28;20420;-92
2022/11/19 09:14:39;;;;;;;7.68;3.60;;;;;;;;;;5058874;28;20393;-91
2022/11/19 09:17:05;;;;;;;4.70;3.57;;;;;;;;;;5064630;28;20755;-92
2022/11/19 09:19:31;;;;;;;4.70;3.40;;;;;;;;;;5077334;28;20447;-92
2022/11/19 09:21:57;;;;;;;3.90;3.15;;;;;;;;;;5086673;28;20380;-91
2022/11/19 09:24:23;;;;;;;4.30;3.60;;;;;;;;;;5067063;28;20393;-89
2022/11/19 09:26:49;;;;;;;4.03;3.70;;;;;;;;;;5070703;28;20389;-89
2022/11/19 09:29:15;;;;;;;4.75;3.17;;;;;;;;;;5085078;28;20415;-91
2022/11/19 09:31:41;;;;;;;5.10;3.50;;;;;;;;;;5094867;28;20407;-90
2022/11/19 09:34:07;;;;;;;4.93;2.90;;;;;;;;;;5074953;28;20384;-91
2022/11/19 09:36:33;;;;;;;3.33;2.97;;;;;;;;;;5040755;28;20386;-93
2022/11/19 09:39:01;;;;;;;4.40;3.38;;;;;;;;;;5072537;28;20849;-91
2022/11/19 09:41:43;;;;;;;4.40;3.03;;;;;;;;;;5072787;28;20395;-92
2022/11/19 09:44:15;;;;;;;4.55;2.80;;;;;;;;;;5061522;28;20476;-92
2022/11/19 09:47:00;;;;;;;4.80;2.70;;;;;;;;;;5070048;28;20441;-93
2022/11/19 09:49:36;;;;;;;3.47;2.80;;;;;;;;;;5072438;28;20451;-92
2022/11/19 09:52:06;;;;;;;4.25;2.83;;;;;;;;;;5071295;28;20394;-92
2022/11/19 09:54:32;;;;;;;2.90;2.42;;;;;;;;;;5073012;28;20383;-92
2022/11/19 09:57:00;;;;;;;3.80;2.33;;;;;;;;;;5089789;28;20382;-92
2022/11/19 09:59:35;;;;;;;2.75;2.50;;;;;;;;;;5075716;28;20447;-91
2022/11/19 10:02:01;;;;;;;2.70;2.42;;;;;;;;;;5075209;28;20379;-92
2022/11/19 10:04:32;;;;;;;3.50;2.37;;;;;;;;;;5061202;28;20385;-91
2022/11/19 10:07:17;;;;;;;5.30;2.72;;;;;;;;;;5075282;28;20383;-92
2022/11/19 10:09:48;;;;;;;3.20;2.90;;;;;;;;;;5075514;28;20730;-92
2022/11/19 10:12:23;;;;;;;5.10;2.80;;;;;;;;;;5074882;28;20465;-92
2022/11/19 10:14:59;;;;;;;3.30;2.50;;;;;;;;;;5060479;28;20431;-92
2022/11/19 10:17:31;;;;;;;3.45;2.20;;;;;;;;;;5069560;28;20431;-92
2022/11/19 10:20:03;;;;;;;3.88;1.90;;;;;;;;;;5057190;28;21004;-91
2022/11/19 10:22:37;;;;;;;5.35;2.88;;;;;;;;;;5074690;28;20530;-92
2022/11/19 10:25:15;;;;;;;6.95;2.67;;;;;;;;;;5074734;28;20816;-91
2022/11/19 10:27:47;;;;;;;2.38;1.85;;;;;;;;;;5074885;28;20413;-92
2022/11/19 10:30:22;;;;;;;2.92;1.73;;;;;;;;;;5074545;28;20415;-92
2022/11/19 10:32:56;;;;;;;3.45;1.70;;;;;;;;;;5073674;28;20392;-92
2022/11/19 10:35:25;;;;;;;3.70;1.80;;;;;;;;;;5074525;28;20395;-92
2022/11/19 10:38:03;;;;;;;3.17;1.70;;;;;;;;;;5074408;28;20376;-92
2022/11/19 10:40:41;;;;;;;3.08;1.50;;;;;;;;;;5074183;28;20403;-93
2022/11/19 10:43:16;;;;;;;3.65;1.73;;;;;;;;;;5091224;28;20444;-92
2022/11/19 10:45:42;;;;;;;7.00;1.60;;;;;;;;;;5094686;28;20385;-93
2022/11/19 10:48:12;;;;;;;1.70;1.30;;;;;;;;;;5060986;28;20465;-92
2022/11/19 10:50:39;;;;;;;2.55;1.30;;;;;;;;;;5074399;28;20805;-93
2022/11/19 10:53:14;;;;;;;2.95;2.03;;;;;;;;;;5074090;28;20430;-93
2022/11/19 10:55:48;;;;;;;2.55;1.83;;;;;;;;;;5055434;28;20387;-91
2022/11/19 10:58:18;;;;;;;5.35;2.47;;;;;;;;;;5073326;28;20415;-91
2022/11/19 11:00:44;;;;;;;4.25;1.52;;;;;;;;;;5070538;28;20418;-90
2022/11/19 11:03:18;;;;;;;3.33;1.40;;;;;;;;;;5079406;28;20415;-92
2022/11/19 11:05:56;;;;;;;1.80;1.10;;;;;;;;;;5085896;28;20381;-90
2022/11/19 11:08:22;;;;;;;2.95;1.60;;;;;;;;;;5083830;28;20372;-92
2022/11/19 11:10:48;;;;;;;1.92;1.20;;;;;;;;;;5073728;28;20371;-92
2022/11/19 11:16:19;;;;;;;2.13;1.30;;;;;;;;;;5071879;28;20391;-91
2022/11/19 11:18:46;;;;;;;3.27;1.80;;;;;;;;;;5069478;28;20465;-92
2022/11/19 11:21:21;;;;;;;3.45;1.80;;;;;;;;;;5073532;28;20784;-91
2022/11/19 11:23:51;;;;;;;3.28;1.80;;;;;;;;;;5063212;28;20417;-93
2022/11/19 11:26:19;;;;;;;2.78;1.35;;;;;;;;;;5073662;28;20384;-91
2022/11/19 11:28:54;;;;;;;1.98;1.10;;;;;;;;;;5061140;28;20405;-91
2022/11/19 11:31:28;;;;;;;3.95;1.27;;;;;;;;;;5069205;28;20458;-92
2022/11/19 11:33:55;;;;;;;2.72;1.30;;;;;;;;;;5070044;28;20385;-92
2022/11/19 11:36:23;;;;;;;2.88;1.73;;;;;;;;;;5081474;28;20376;-94
2022/11/19 11:38:51;;;;;;;2.63;1.38;;;;;;;;;;5057489;28;20386;-92
2022/11/19 11:46:58;;;;;;;2.00;1.10;;;;;;;;;;5512688;22;20515;-92
2022/11/19 11:49:42;;;;;;;;;;;;;;;;;;;;;
2022/11/19 11:52:33;;;;;;;21.90;3.20;;;;;;;;;;5128794;27;20437;-91
2022/11/19 11:55:00;;;;;;;2.75;1.33;;;;;;;;;;5114043;28;20369;-91
2022/11/19 11:57:28;;;;;;;2.08;1.00;;;;;;;;;;5095412;28;20372;-90
2022/11/19 11:59:54;;;;;;;3.25;1.20;;;;;;;;;;5106695;28;20873;-90
2022/11/19 12:02:22;;;;;;;1.37;1.00;;;;;;;;;;5110990;28;20869;-90
2022/11/19 12:04:51;;;;;;;2.42;1.20;;;;;;;;;;5109690;28;20381;-91
2022/11/19 12:07:23;;;;;;;1.80;1.00;;;;;;;;;;5108657;28;20467;-91
2022/11/19 12:10:09;;;;;;;1.60;1.00;;;;;;;;;;5111870;28;20396;-90
2022/11/19 12:12:38;;;;;;;2.50;1.10;;;;;;;;;;5112776;28;20377;-91
2022/11/19 12:15:04;;;;;;;3.80;2.15;;;;;;;;;;5112036;28;20392;-90
2022/11/19 12:17:43;;;;;;;2.05;1.02;;;;;;;;;;5110937;28;20364;-90
2022/11/19 12:20:19;;;;;;;2.50;0.85;;;;;;;;;;5113944;27;20380;-90
2022/11/19 12:22:51;;;;;;;2.05;1.00;;;;;;;;;;5111365;28;20376;-91
2022/11/19 12:25:46;;;;;;;2.13;1.00;;;;;;;;;;5112837;28;20376;-89
2022/11/19 12:28:30;;;;;;;3.10;1.17;;;;;;;;;;5086525;28;20385;-88
2022/11/19 12:31:19;;;;;;;1.50;0.70;;;;;;;;;;5109129;28;20399;-88
2022/11/19 12:33:54;;;;;;;2.42;1.00;;;;;;;;;;5108503;28;20375;-89
2022/11/19 12:36:20;;;;;;;4.82;1.20;;;;;;;;;;5112362;28;20384;-91
2022/11/19 12:38:49;;;;;;;2.30;1.10;;;;;;;;;;5112313;28;20407;-90
2022/11/19 12:41:24;;;;;;;2.27;1.37;;;;;;;;;;5111935;28;20490;-89
2022/11/19 12:43:53;;;;;;;4.80;1.58;;;;;;;;;;5111008;28;20908;-86
2022/11/19 12:46:34;;;;;;;3.72;1.67;;;;;;;;;;5110509;28;20388;-88
2022/11/19 12:49:19;;;;;;;2.50;1.80;;;;;;;;;;5102037;28;20440;-91
2022/11/19 12:51:45;;;;;;;2.35;1.25;;;;;;;;;;5115359;27;20375;-89
2022/11/19 12:54:17;;;;;;;2.10;1.50;;;;;;;;;;5112615;28;20376;-91
2022/11/19 12:56:53;;;;;;;3.38;1.50;;;;;;;;;;5117805;27;20368;-89
2022/11/19 12:59:38;;;;;;;2.97;1.60;;;;;;;;;;5128492;27;20474;-88
2022/11/19 13:02:13;;;;;;;3.38;2.10;;;;;;;;;;5123396;28;20388;-91
2022/11/19 13:04:42;;;;;;;3.53;1.65;;;;;;;;;;5130484;28;20395;-91
2022/11/19 13:07:12;;;;;;;3.00;1.70;;;;;;;;;;5126520;28;20384;-91
2022/11/19 13:09:39;;;;;;;2.47;1.25;;;;;;;;;;5115091;28;20400;-91
2022/11/19 13:12:08;;;;;;;2.42;1.50;;;;;;;;;;5115176;28;20410;-89
2022/11/19 13:14:46;;;;;;;3.63;1.42;;;;;;;;;;5111039;28;20800;-90
2022/11/19 13:17:18;;;;;;;2.30;1.40;;;;;;;;;;5113869;28;20891;-90
2022/11/19 13:19:46;;;;;;;3.42;1.17;;;;;;;;;;5113336;28;20373;-90
2022/11/19 13:22:17;;;;;;;4.50;1.40;;;;;;;;;;5112967;28;20467;-91
2022/11/19 13:24:54;;;;;;;3.88;2.30;;;;;;;;;;5113445;28;20384;-92
2022/11/19 13:27:22;;;;;;;3.22;1.40;;;;;;;;;;5112015;28;20447;-91
2022/11/19 13:30:02;;;;;;;2.97;1.20;;;;;;;;;;5100560;28;20761;-91
2022/11/19 13:32:28;;;;;;;1.23;0.90;;;;;;;;;;5109746;28;20854;-91
2022/11/19 13:34:59;;;;;;;2.03;1.20;;;;;;;;;;5109422;28;20430;-91
2022/11/19 13:37:28;;;;;;;2.20;1.27;;;;;;;;;;5109253;27;20387;-92
2022/11/19 13:40:04;;;;;;;2.03;1.20;;;;;;;;;;5104589;28;20382;-90
2022/11/19 13:45:23;;;;;;;2.35;1.20;;;;;;;;;;5079740;28;20853;-88
2022/11/19 13:47:55;;;;;;;2.42;1.40;;;;;;;;;;5108935;28;21098;-88
2022/11/19 13:50:23;;;;;;;1.75;1.10;;;;;;;;;;5115789;28;20406;-88
2022/11/19 13:52:53;;;;;;;2.13;1.40;;;;;;;;;;5112066;28;20729;-90
2022/11/19 13:55:22;;;;;;;1.88;1.40;;;;;;;;;;5111594;28;20388;-85
2022/11/19 13:57:48;;;;;;;3.40;2.10;;;;;;;;;;5115792;28;20373;-86
2022/11/19 14:00:23;;;;;;;2.72;1.70;;;;;;;;;;5115423;28;20721;-88
2022/11/19 14:02:52;;;;;;;2.72;1.63;;;;;;;;;;5115898;28;20968;-88
2022/11/19 14:05:30;;;;;;;4.85;2.40;;;;;;;;;;5116298;28;20381;-89
2022/11/19 14:08:08;;;;;;;2.80;1.80;;;;;;;;;;5095711;28;20896;-88
2022/11/19 14:10:37;;;;;;;3.00;1.40;;;;;;;;;;5114108;27;20473;-88
2022/11/19 14:13:19;;;;;;;2.72;1.27;;;;;;;;;;5106277;28;20402;-87
2022/11/19 14:27:30;;;;;;;2.80;1.40;;;;;;;;;;5114227;28;20371;-89
2022/11/19 14:29:58;;;;;;;1.80;1.02;;;;;;;;;;5110616;27;20428;-87
2022/11/19 14:32:34;;;;;;;2.35;0.95;;;;;;;;;;5108000;28;20372;-85
2022/11/19 14:35:00;;;;;;;1.65;0.88;;;;;;;;;;5113584;28;20369;-86
2022/11/19 14:37:32;;;;;;;2.00;0.80;;;;;;;;;;5113035;28;20432;-85
2022/11/19 14:39:58;;;;;;;12.90;2.55;;;;;;;;;;5095394;28;20471;-85
2022/11/19 14:42:24;;;;;;;2.20;1.30;;;;;;;;;;5112356;28;20510;-83
2022/11/19 14:45:10;;;;;;;1.65;1.00;;;;;;;;;;5110356;28;20387;-87
2022/11/19 14:47:43;;;;;;;68.03;7.80;;;;;;;;;;5093149;28;20432;-85
2022/11/19 14:50:21;;;;;;;34.83;4.72;;;;;;;;;;5109053;28;20408;-84
2022/11/19 14:52:54;;;;;;;12.80;2.40;;;;;;;;;;5101485;28;20437;-85
2022/11/19 14:55:24;;;;;;;3.05;0.95;;;;;;;;;;5110756;28;20436;-89
2022/11/19 14:58:05;;;;;;;2.20;1.30;;;;;;;;;;5113202;28;20380;-87
2022/11/19 15:00:31;;;;;;;7.00;3.35;;;;;;;;;;5113167;28;20932;-86
2022/11/19 15:02:57;;;;;;;3.22;1.45;;;;;;;;;;5113154;28;20381;-89
2022/11/19 15:05:26;;;;;;;1.25;0.80;;;;;;;;;;5115685;27;20377;-85
2022/11/19 15:08:11;;;;;;;0.95;0.60;;;;;;;;;;5101533;28;20372;-89
2022/11/19 15:10:47;;;;;;;1.58;0.73;;;;;;;;;;5112979;28;20408;-87
2022/11/19 15:13:19;;;;;;;1.40;0.70;;;;;;;;;;5113239;28;20442;-88
2022/11/19 15:15:46;;;;;;;1.17;1.07;;;;;;;;;;5113025;28;20944;-86
2022/11/19 15:18:33;;;;;;;2.80;1.90;;;;;;;;;;5102544;28;20390;-88
2022/11/19 15:21:17;;;;;;;3.30;2.60;;;;;;;;;;5058838;28;20400;-87
2022/11/19 15:24:02;;;;;;;2.15;1.73;;;;;;;;;;5112539;28;20380;-84
2022/11/19 15:26:36;;;;;;;2.17;1.42;;;;;;;;;;5098496;28;20383;-85
2022/11/19 15:29:02;;;;;;;2.92;1.90;;;;;;;;;;5112681;28;20745;-85
2022/11/19 15:31:34;;;;;;;2.75;1.63;;;;;;;;;;5112460;28;20364;-87
2022/11/19 15:34:03;;;;;;;2.00;1.30;;;;;;;;;;5112587;28;20446;-86
2022/11/19 15:36:29;;;;;;;2.20;1.50;;;;;;;;;;5112247;28;20377;-84
2022/11/19 15:38:55;;;;;;;2.13;1.40;;;;;;;;;;5103147;28;20785;-87
2022/11/19 15:41:23;;;;;;;3.72;3.33;;;;;;;;;;5112437;28;20407;-86
2022/11/19 15:43:51;;;;;;;2.20;1.50;;;;;;;;;;5112608;28;20733;-86
2022/11/19 15:46:26;;;;;;;2.28;1.48;;;;;;;;;;5105237;27;20418;-86
2022/11/19 15:49:11;;;;;;;2.35;1.30;;;;;;;;;;5132488;27;20406;-86
2022/11/19 15:51:56;;;;;;;2.70;2.08;;;;;;;;;;5132213;27;20370;-86
2022/11/19 15:54:30;;;;;;;1.85;1.67;;;;;;;;;;5132494;27;20408;-85
2022/11/19 15:57:25;;;;;;;1.20;1.10;;;;;;;;;;5132459;27;20429;-85
2022/11/19 15:59:54;;;;;;;1.45;1.30;;;;;;;;;;5110974;27;20399;-86
2022/11/19 16:02:22;;;;;;;2.45;1.50;;;;;;;;;;5132304;27;20429;-86
2022/11/19 16:04:49;;;;;;;1.52;1.35;;;;;;;;;;5132303;27;20731;-86
2022/11/19 16:07:21;;;;;;;1.40;1.20;;;;;;;;;;5123308;27;20402;-87
2022/11/19 16:09:48;;;;;;;1.02;0.90;;;;;;;;;;5132200;27;20413;-86
2022/11/19 16:17:59;;;;;;;2.50;2.03;;;;;;;;;;5132166;27;20837;-86